createdAt,value
2023-02-28T00:00:27.793Z,70.10
2023-02-28T00:02:54.484Z,70.10
2023-02-28T00:05:23.085Z,70.10
2023-02-28T00:07:49.959Z,70.10
2023-02-28T00:10:22.103Z,70.30
2023-02-28T00:12:49.791Z,70.30
2023-02-28T00:15:16.466Z,70.30
2023-02-28T00:17:43.445Z,70.30
2023-02-28T00:20:11.015Z,70.40
2023-02-28T00:22:41.851Z,70.40
2023-02-28T00:25:09.060Z,70.50
2023-02-28T00:27:36.457Z,70.50
2023-02-28T00:30:03.420Z,70.40
2023-02-28T00:32:30.573Z,70.40
2023-02-28T00:34:57.315Z,70.30
2023-02-28T00:37:25.353Z,70.10
2023-02-28T00:39:52.119Z,70.10
2023-02-28T00:42:18.815Z,70.10
2023-02-28T00:44:45.483Z,70.20
2023-02-28T00:47:12.140Z,70.30
2023-02-28T00:49:38.944Z,70.20
2023-02-28T00:52:05.606Z,70.50
2023-02-28T00:54:32.254Z,70.00
2023-02-28T00:56:59.180Z,70.00
2023-02-28T00:59:26.189Z,69.90
2023-02-28T01:01:52.984Z,70.00
2023-02-28T01:04:19.696Z,70.00
2023-02-28T01:06:46.390Z,70.00
2023-02-28T01:09:13.114Z,70.00
2023-02-28T01:11:41.644Z,70.00
2023-02-28T01:14:09.275Z,70.00
2023-02-28T01:16:35.925Z,69.90
2023-02-28T01:19:02.690Z,69.90
2023-02-28T01:21:30.874Z,69.80
2023-02-28T01:23:58.754Z,69.80
2023-02-28T01:26:26.848Z,69.80
2023-02-28T01:28:53.661Z,69.80
2023-02-28T01:31:20.705Z,69.80
2023-02-28T01:33:47.550Z,69.80
2023-02-28T01:36:24.635Z,69.70
2023-02-28T01:38:51.700Z,69.80
2023-02-28T01:41:23.760Z,69.80
2023-02-28T01:43:50.430Z,69.90
2023-02-28T01:46:17.162Z,69.80
2023-02-28T01:48:50.171Z,69.90
2023-02-28T01:51:21.191Z,69.90
2023-02-28T01:53:50.429Z,69.90
2023-02-28T01:56:21.440Z,69.90
2023-02-28T01:58:49.632Z,70.00
2023-02-28T02:01:22.471Z,70.80
2023-02-28T02:03:57.864Z,70.10
2023-02-28T02:06:26.816Z,70.00
2023-02-28T02:08:53.508Z,70.10
2023-02-28T02:11:20.879Z,70.00
2023-02-28T02:14:04.863Z,69.90
2023-02-28T02:17:03.503Z,69.90
2023-02-28T02:19:55.390Z,70.00
2023-02-28T02:23:03.733Z,70.00
2023-02-28T02:25:41.917Z,70.00
2023-02-28T02:28:33.364Z,70.00
2023-02-28T02:31:12.048Z,70.00
2023-02-28T02:34:16.156Z,69.90
2023-02-28T02:37:07.950Z,70.00
2023-02-28T02:39:54.315Z,70.00
2023-02-28T02:42:31.876Z,70.00
2023-02-28T02:45:05.452Z,70.00
2023-02-28T02:47:32.710Z,70.00
2023-02-28T02:50:02.100Z,70.00
2023-02-28T02:52:44.136Z,69.90
2023-02-28T02:55:13.082Z,69.90
2023-02-28T02:57:48.622Z,69.90
2023-02-28T03:00:17.492Z,70.00
2023-02-28T03:02:44.191Z,69.90
2023-02-28T03:05:18.052Z,70.10
2023-02-28T03:07:44.706Z,70.10
2023-02-28T03:10:47.466Z,70.20
2023-02-28T03:13:21.670Z,70.20
2023-02-28T03:16:11.867Z,70.10
2023-02-28T03:18:55.776Z,70.20
2023-02-28T03:21:45.275Z,70.20
2023-02-28T03:24:24.215Z,70.10
2023-02-28T03:26:53.928Z,70.20
2023-02-28T03:29:38.886Z,70.20
2023-02-28T03:32:22.819Z,70.20
2023-02-28T03:34:56.848Z,70.20
2023-02-28T03:37:23.791Z,70.20
2023-02-28T03:39:56.631Z,70.20
2023-02-28T03:42:24.763Z,70.10
2023-02-28T03:45:02.858Z,70.30
2023-02-28T03:47:35.345Z,70.20
2023-02-28T03:50:12.188Z,70.10
2023-02-28T03:52:46.189Z,70.20
2023-02-28T03:55:14.234Z,70.20
2023-02-28T03:57:59.865Z,70.40
2023-02-28T04:00:34.580Z,70.50
2023-02-28T04:03:01.806Z,70.60
2023-02-28T04:05:28.563Z,70.70
2023-02-28T04:07:55.788Z,70.60
2023-02-28T04:10:22.639Z,70.60
2023-02-28T04:12:49.330Z,70.60
2023-02-28T04:15:16.105Z,70.50
2023-02-28T04:17:43.191Z,70.60
2023-02-28T04:20:10.694Z,70.70
2023-02-28T04:22:38.392Z,70.60
2023-02-28T04:25:07.017Z,70.60
2023-02-28T04:27:34.012Z,70.50
2023-02-28T04:30:00.823Z,70.40
2023-02-28T04:32:27.551Z,70.30
2023-02-28T04:34:54.320Z,70.30
2023-02-28T04:37:21.098Z,70.20
2023-02-28T04:39:47.745Z,70.30
2023-02-28T04:42:14.590Z,70.20
2023-02-28T04:44:41.251Z,70.20
2023-02-28T04:47:09.278Z,70.30
2023-02-28T04:49:37.119Z,70.10
2023-02-28T04:52:04.606Z,70.00
2023-02-28T04:54:31.353Z,69.90
2023-02-28T04:56:58.440Z,69.90
2023-02-28T04:59:25.118Z,69.80
2023-02-28T05:01:51.925Z,69.80
2023-02-28T05:04:18.721Z,69.80
2023-02-28T05:06:45.497Z,69.80
2023-02-28T05:09:15.163Z,69.80
2023-02-28T05:11:41.868Z,69.70
2023-02-28T05:14:13.738Z,69.60
2023-02-28T05:16:40.647Z,69.60
2023-02-28T05:19:08.286Z,69.60
2023-02-28T05:21:36.490Z,69.50
2023-02-28T05:24:05.088Z,69.60
2023-02-28T05:26:31.970Z,69.60
2023-02-28T05:28:58.677Z,69.70
2023-02-28T05:31:25.469Z,69.80
2023-02-28T05:33:52.593Z,69.70
2023-02-28T05:36:19.578Z,69.60
2023-02-28T05:38:49.600Z,69.60
2023-02-28T05:41:16.403Z,69.50
2023-02-28T05:43:43.154Z,69.50
2023-02-28T05:46:12.055Z,69.60
2023-02-28T05:48:40.330Z,69.60
2023-02-28T05:51:07.702Z,69.50
2023-02-28T05:53:34.503Z,69.40
2023-02-28T05:56:01.277Z,69.50
2023-02-28T05:58:31.628Z,69.40
2023-02-28T06:01:02.253Z,69.40
2023-02-28T06:03:28.964Z,69.30
2023-02-28T06:05:56.094Z,69.40
2023-02-28T06:08:22.806Z,69.40
2023-02-28T06:10:49.553Z,69.30
2023-02-28T06:13:16.339Z,69.40
2023-02-28T06:15:43.737Z,69.40
2023-02-28T06:18:10.459Z,69.50
2023-02-28T06:20:37.369Z,69.60
2023-02-28T06:23:04.116Z,69.60
2023-02-28T06:25:30.880Z,69.50
2023-02-28T06:27:57.696Z,69.60
2023-02-28T06:30:26.893Z,69.50
2023-02-28T06:32:54.219Z,69.50
2023-02-28T06:35:21.016Z,69.50
2023-02-28T06:37:48.161Z,69.40
2023-02-28T06:40:15.343Z,69.40
2023-02-28T06:42:43.006Z,69.30
2023-02-28T06:45:10.765Z,69.40
2023-02-28T06:47:40.910Z,69.30
2023-02-28T06:50:09.250Z,69.20
2023-02-28T06:52:38.276Z,69.30
2023-02-28T06:55:06.516Z,69.20
2023-02-28T06:57:33.954Z,69.20
2023-02-28T07:00:01.031Z,69.20
2023-02-28T07:02:28.147Z,69.20
2023-02-28T07:04:54.848Z,69.00
2023-02-28T07:07:21.654Z,69.30
2023-02-28T07:09:48.320Z,69.20
2023-02-28T07:12:16.740Z,69.30
2023-02-28T07:14:43.397Z,69.30
2023-02-28T07:17:12.914Z,69.40
2023-02-28T07:19:40.101Z,70.20
2023-02-28T07:22:07.366Z,69.30
2023-02-28T07:24:34.428Z,69.20
2023-02-28T07:27:01.864Z,69.40
2023-02-28T07:29:28.715Z,69.70
2023-02-28T07:31:55.524Z,70.20
2023-02-28T07:34:22.299Z,70.40
2023-02-28T07:36:49.065Z,70.30
2023-02-28T07:39:17.432Z,70.40
2023-02-28T07:41:44.409Z,70.60
2023-02-28T07:44:12.082Z,70.60
2023-02-28T07:46:38.921Z,71.40
2023-02-28T07:49:05.915Z,71.40
2023-02-28T07:51:32.648Z,70.40
2023-02-28T07:53:59.312Z,70.20
2023-02-28T07:56:26.038Z,70.30
2023-02-28T07:58:52.705Z,70.40
2023-02-28T08:01:20.384Z,70.40
2023-02-28T08:03:47.497Z,70.30
2023-02-28T08:06:22.378Z,70.30
2023-02-28T08:08:49.193Z,70.10
2023-02-28T08:11:17.813Z,70.10
2023-02-28T08:13:45.853Z,70.30
2023-02-28T08:16:15.710Z,69.60
2023-02-28T08:18:42.472Z,69.50
2023-02-28T08:21:09.967Z,69.50
2023-02-28T08:23:36.823Z,69.50
2023-02-28T08:26:03.718Z,69.90
2023-02-28T08:28:30.587Z,70.50
2023-02-28T08:30:57.307Z,70.40
2023-02-28T08:33:24.303Z,70.40
2023-02-28T08:35:55.272Z,70.50
2023-02-28T08:38:22.199Z,70.50
2023-02-28T08:40:48.888Z,70.40
2023-02-28T08:43:17.290Z,70.40
2023-02-28T08:45:44.117Z,70.40
2023-02-28T08:48:11.027Z,70.20
2023-02-28T08:50:37.700Z,70.30
2023-02-28T08:53:04.425Z,70.30
2023-02-28T08:55:31.077Z,70.30
2023-02-28T08:57:57.812Z,70.30
2023-02-28T09:00:24.677Z,70.10
2023-02-28T09:02:51.383Z,70.30
2023-02-28T09:05:18.266Z,70.30
2023-02-28T09:07:45.810Z,70.10
2023-02-28T09:10:12.585Z,70.30
2023-02-28T09:12:39.305Z,70.30
2023-02-28T09:15:06.748Z,70.30
2023-02-28T09:17:33.459Z,70.40
2023-02-28T09:20:00.219Z,70.10
2023-02-28T09:22:26.970Z,70.30
2023-02-28T09:24:53.651Z,70.30
2023-02-28T09:27:20.417Z,70.10
2023-02-28T09:29:48.045Z,69.90
2023-02-28T09:32:15.713Z,69.90
2023-02-28T09:34:42.708Z,70.00
2023-02-28T09:37:09.479Z,70.10
2023-02-28T09:39:36.155Z,70.00
2023-02-28T09:42:03.007Z,70.00
2023-02-28T09:44:39.888Z,70.00
2023-02-28T09:47:24.314Z,69.90
2023-02-28T09:49:50.988Z,69.80
2023-02-28T09:52:22.685Z,69.70
2023-02-28T09:54:49.455Z,69.60
2023-02-28T09:57:35.972Z,69.80
2023-02-28T10:00:19.511Z,70.00
2023-02-28T10:03:11.658Z,70.10
2023-02-28T10:05:49.872Z,70.20
2023-02-28T10:08:26.908Z,70.30
2023-02-28T10:10:56.785Z,70.20
2023-02-28T10:13:25.628Z,69.90
2023-02-28T10:16:36.677Z,69.60
2023-02-28T10:19:23.066Z,69.60
2023-02-28T10:21:59.446Z,69.60
2023-02-28T10:24:34.578Z,69.40
2023-02-28T10:27:07.369Z,69.60
2023-02-28T10:29:34.328Z,69.50
2023-02-28T10:32:02.501Z,69.60
2023-02-28T10:34:29.584Z,69.70
2023-02-28T10:36:56.668Z,69.90
2023-02-28T10:39:52.897Z,69.90
2023-02-28T10:42:20.988Z,70.80
2023-02-28T10:44:48.173Z,70.10
2023-02-28T10:47:18.757Z,70.10
2023-02-28T10:49:49.980Z,70.10
2023-02-28T10:52:39.756Z,70.00
2023-02-28T10:55:23.191Z,69.90
2023-02-28T10:57:50.508Z,69.90
2023-02-28T11:00:22.853Z,70.00
2023-02-28T11:02:49.810Z,70.00
2023-02-28T11:05:32.985Z,70.10
2023-02-28T11:08:12.137Z,70.10
2023-02-28T11:10:38.929Z,70.30
2023-02-28T11:13:05.703Z,70.00
2023-02-28T11:15:34.495Z,70.10
2023-02-28T11:18:03.473Z,70.00
2023-02-28T11:20:32.786Z,70.10
2023-02-28T11:23:00.046Z,70.20
2023-02-28T11:25:31.395Z,70.10
2023-02-28T11:28:01.891Z,52.00
2023-02-28T11:30:32.974Z,52.00
2023-02-28T11:32:59.814Z,54.70
2023-02-28T11:35:35.824Z,56.30
2023-02-28T11:38:03.268Z,56.50
2023-02-28T11:40:55.117Z,57.30
2023-02-28T11:43:40.006Z,58.10
2023-02-28T11:46:45.937Z,58.60
2023-02-28T11:49:23.663Z,58.80
2023-02-28T11:52:00.674Z,59.30
2023-02-28T11:54:36.938Z,59.60
2023-02-28T11:57:29.545Z,60.00
2023-02-28T12:00:21.084Z,60.50
2023-02-28T12:03:25.050Z,60.90
2023-02-28T12:06:14.343Z,61.50
2023-02-28T12:09:12.079Z,62.10
2023-02-28T12:11:48.227Z,62.50
2023-02-28T12:14:20.518Z,62.90
2023-02-28T12:16:56.201Z,63.10
2023-02-28T12:19:38.866Z,63.80
2023-02-28T12:22:30.205Z,63.80
2023-02-28T12:25:16.997Z,64.60
2023-02-28T12:27:46.383Z,64.80
2023-02-28T12:30:26.022Z,65.00
2023-02-28T12:33:08.377Z,65.10
2023-02-28T12:35:56.752Z,65.30
2023-02-28T12:38:27.260Z,65.60
2023-02-28T12:41:08.700Z,65.90
2023-02-28T12:43:38.518Z,66.00
2023-02-28T12:46:33.835Z,66.50
2023-02-28T12:49:05.760Z,66.40
2023-02-28T12:51:32.512Z,66.40
2023-02-28T12:54:22.137Z,66.70
2023-02-28T12:56:54.668Z,67.00
2023-02-28T12:59:21.368Z,66.90
2023-02-28T13:01:50.978Z,67.00
2023-02-28T13:04:45.883Z,67.10
2023-02-28T13:07:40.448Z,67.20
2023-02-28T13:10:10.103Z,66.90
2023-02-28T13:12:37.352Z,66.90
2023-02-28T13:15:17.789Z,66.60
2023-02-28T13:17:45.624Z,66.80
2023-02-28T13:20:18.257Z,66.90
2023-02-28T13:22:47.949Z,66.90
2023-02-28T13:25:23.901Z,66.70
2023-02-28T13:27:57.176Z,66.50
2023-02-28T13:31:00.124Z,66.70
2023-02-28T13:33:36.412Z,66.80
2023-02-28T13:36:16.627Z,66.70
2023-02-28T13:38:44.265Z,66.60
2023-02-28T13:41:45.850Z,66.60
2023-02-28T13:44:28.085Z,66.60
2023-02-28T13:46:56.661Z,67.40
2023-02-28T13:49:33.228Z,66.60
2023-02-28T13:52:20.320Z,66.70
2023-02-28T13:55:31.686Z,66.60
2023-02-28T13:58:00.838Z,66.40
2023-02-28T14:00:48.789Z,66.50
2023-02-28T14:03:27.452Z,66.50
2023-02-28T14:06:26.499Z,66.60
2023-02-28T14:09:08.762Z,66.50
2023-02-28T14:11:37.249Z,66.90
2023-02-28T14:14:04.595Z,66.50
2023-02-28T14:16:41.242Z,66.50
2023-02-28T14:19:12.648Z,66.50
2023-02-28T14:21:44.211Z,66.50
2023-02-28T14:24:29.829Z,66.60
2023-02-28T14:27:26.135Z,66.70
2023-02-28T14:30:22.290Z,66.80
2023-02-28T14:33:03.225Z,67.10
2023-02-28T14:35:41.230Z,67.20
2023-02-28T14:38:15.725Z,68.00
2023-02-28T14:40:42.705Z,67.40
2023-02-28T14:43:23.924Z,67.90
2023-02-28T14:46:01.465Z,67.80
2023-02-28T14:48:28.320Z,67.80
2023-02-28T14:50:57.549Z,67.80
2023-02-28T14:53:26.675Z,67.90
2023-02-28T14:55:53.834Z,68.10
2023-02-28T14:58:27.563Z,68.40
2023-02-28T15:00:56.275Z,68.60
2023-02-28T15:03:24.036Z,68.50
2023-02-28T15:05:59.090Z,69.00
2023-02-28T15:08:27.102Z,69.00
2023-02-28T15:11:05.113Z,69.50
2023-02-28T15:13:45.777Z,70.10
2023-02-28T15:16:15.960Z,70.40
2023-02-28T15:19:06.023Z,70.70
2023-02-28T15:21:37.110Z,70.70
2023-02-28T15:24:24.818Z,70.90
2023-02-28T15:26:56.340Z,71.10
2023-02-28T15:29:25.174Z,71.50
2023-02-28T15:31:57.793Z,71.00
2023-02-28T15:34:46.121Z,71.10
2023-02-28T15:37:34.444Z,71.20
2023-02-28T15:40:17.743Z,71.50
2023-02-28T15:42:58.687Z,71.60
2023-02-28T15:45:42.315Z,71.60
2023-02-28T15:48:27.518Z,71.80
2023-02-28T15:51:08.323Z,71.90
2023-02-28T15:53:57.673Z,72.00
2023-02-28T15:56:31.851Z,72.70
2023-02-28T15:59:03.226Z,72.10
2023-02-28T16:01:31.624Z,72.20
2023-02-28T16:04:01.300Z,72.30
2023-02-28T16:06:43.063Z,72.30
2023-02-28T16:09:12.008Z,72.10
2023-02-28T16:11:43.682Z,72.40
2023-02-28T16:14:15.866Z,73.30
2023-02-28T16:16:49.156Z,74.30
2023-02-28T16:19:18.247Z,74.50
2023-02-28T16:21:45.595Z,74.80
2023-02-28T16:24:12.511Z,75.00
2023-02-28T16:26:40.933Z,74.70
2023-02-28T16:29:07.859Z,74.70
2023-02-28T16:31:36.947Z,73.70
2023-02-28T16:34:03.815Z,74.00
2023-02-28T16:36:30.554Z,74.00
2023-02-28T16:38:57.918Z,74.10
2023-02-28T16:41:28.747Z,74.00
2023-02-28T16:43:59.748Z,74.10
2023-02-28T16:46:35.624Z,73.60
2023-02-28T16:49:02.373Z,73.50
2023-02-28T16:51:29.375Z,73.60
2023-02-28T16:53:56.255Z,73.40
2023-02-28T16:56:24.471Z,73.60
2023-02-28T16:58:51.513Z,73.60
2023-02-28T17:01:22.860Z,73.80
2023-02-28T17:03:50.492Z,74.00
2023-02-28T17:06:23.352Z,74.00
2023-02-28T17:08:51.113Z,73.90
2023-02-28T17:11:19.732Z,73.70
2023-02-28T17:13:46.644Z,73.30
2023-02-28T17:16:31.440Z,73.40
2023-02-28T17:19:03.134Z,73.80
2023-02-28T17:21:29.969Z,73.70
2023-02-28T17:23:57.016Z,73.40
2023-02-28T17:26:27.185Z,73.50
2023-02-28T17:28:56.681Z,73.60
2023-02-28T17:31:24.356Z,73.40
2023-02-28T17:33:51.227Z,73.40
2023-02-28T17:36:23.216Z,74.00
2023-02-28T17:38:50.362Z,73.40
2023-02-28T17:41:17.192Z,73.50
2023-02-28T17:43:43.977Z,73.70
2023-02-28T17:46:29.701Z,73.70
2023-02-28T17:48:56.686Z,72.70
2023-02-28T17:51:24.259Z,72.50
2023-02-28T17:53:51.984Z,72.20
2023-02-28T17:56:25.777Z,71.90
2023-02-28T17:58:53.601Z,72.20
2023-02-28T18:01:21.426Z,71.20
2023-02-28T18:03:48.585Z,71.20
2023-02-28T18:06:22.263Z,71.30
2023-02-28T18:08:50.193Z,78.10
2023-02-28T18:11:22.021Z,72.80
2023-02-28T18:13:50.636Z,71.50
2023-02-28T18:16:18.735Z,70.20
2023-02-28T18:18:45.730Z,69.40
2023-02-28T18:21:13.513Z,72.00
2023-02-28T18:23:47.721Z,71.90
2023-02-28T18:26:18.089Z,70.70
2023-02-28T18:28:45.018Z,71.80
2023-02-28T18:31:13.519Z,71.70
2023-02-28T18:33:40.443Z,71.70
2023-02-28T18:36:07.327Z,71.80
2023-02-28T18:38:33.990Z,71.40
2023-02-28T18:41:02.366Z,70.80
2023-02-28T18:43:29.747Z,70.50
2023-02-28T18:45:56.604Z,70.40
2023-02-28T18:48:24.051Z,69.80
2023-02-28T18:50:52.215Z,69.70
2023-02-28T18:53:19.108Z,70.10
2023-02-28T18:55:45.997Z,69.50
2023-02-28T18:58:16.131Z,69.20
2023-02-28T19:00:44.500Z,69.50
2023-02-28T19:03:11.852Z,70.00
2023-02-28T19:05:38.603Z,70.10
2023-02-28T19:08:05.802Z,70.30
2023-02-28T19:10:44.941Z,70.70
2023-02-28T19:13:12.036Z,73.00
2023-02-28T19:15:43.066Z,72.90
2023-02-28T19:18:18.952Z,71.50
2023-02-28T19:20:46.160Z,71.50
2023-02-28T19:23:15.232Z,71.90
2023-02-28T19:25:42.699Z,71.50
2023-02-28T19:28:09.472Z,71.30
2023-02-28T19:30:36.216Z,72.00
2023-02-28T19:33:02.891Z,72.10
2023-02-28T19:35:29.677Z,75.80
2023-02-28T19:37:58.274Z,77.70
2023-02-28T19:40:25.882Z,79.80
2023-02-28T19:42:52.747Z,79.00
2023-02-28T19:45:19.420Z,75.80
2023-02-28T19:47:46.092Z,75.80
2023-02-28T19:50:12.846Z,75.90
2023-02-28T19:55:06.513Z,75.90
2023-02-28T19:57:33.229Z,75.30
2023-02-28T20:00:00.214Z,74.70
2023-02-28T20:02:26.948Z,74.20
2023-02-28T20:04:56.104Z,74.10
2023-02-28T20:07:24.523Z,73.90
2023-02-28T20:09:51.318Z,73.40
2023-02-28T20:12:26.083Z,73.40
2023-02-28T20:14:53.214Z,73.40
2023-02-28T20:17:19.878Z,74.30
2023-02-28T20:19:46.682Z,74.00
2023-02-28T20:22:13.434Z,74.40
2023-02-28T20:24:40.152Z,74.10
2023-02-28T20:27:06.859Z,75.70
2023-02-28T20:29:34.137Z,74.70
2023-02-28T20:32:01.066Z,74.00
2023-02-28T20:34:27.947Z,73.90
2023-02-28T20:36:56.886Z,73.80
2023-02-28T20:39:23.870Z,74.20
2023-02-28T20:41:50.946Z,73.50
2023-02-28T20:44:19.296Z,72.70
2023-02-28T20:46:46.165Z,72.80
2023-02-28T20:49:13.098Z,72.80
2023-02-28T20:51:42.138Z,72.70
2023-02-28T20:54:11.206Z,73.10
2023-02-28T20:56:38.364Z,72.90
2023-02-28T20:59:05.585Z,73.00
2023-02-28T21:01:32.348Z,72.90
2023-02-28T21:04:00.989Z,72.90
2023-02-28T21:06:29.835Z,72.80
2023-02-28T21:08:57.020Z,72.40
2023-02-28T21:11:28.481Z,72.20
2023-02-28T21:13:58.431Z,71.80
2023-02-28T21:16:27.028Z,72.10
2023-02-28T21:18:55.345Z,72.10
2023-02-28T21:21:24.508Z,71.80
2023-02-28T21:23:51.918Z,71.70
2023-02-28T21:26:20.372Z,71.60
2023-02-28T21:28:51.012Z,73.40
2023-02-28T21:31:18.211Z,73.10
2023-02-28T21:33:45.258Z,73.50
2023-02-28T21:36:19.747Z,73.50
2023-02-28T21:38:47.089Z,72.80
2023-02-28T21:41:18.454Z,72.80
2023-02-28T21:43:45.663Z,72.30
2023-02-28T21:46:17.545Z,72.10
2023-02-28T21:48:44.308Z,71.70
2023-02-28T21:51:17.157Z,71.60
2023-02-28T21:53:43.984Z,71.40
2023-02-28T21:56:24.402Z,71.00
2023-02-28T21:58:51.385Z,70.90
2023-02-28T22:01:19.697Z,70.60
2023-02-28T22:03:46.808Z,70.30
2023-02-28T22:06:18.163Z,70.20
2023-02-28T22:08:46.445Z,69.80
2023-02-28T22:11:13.396Z,70.00
2023-02-28T22:13:40.141Z,69.60
2023-02-28T22:16:08.581Z,69.50
2023-02-28T22:18:35.623Z,69.50
2023-02-28T22:21:02.391Z,69.50
2023-02-28T22:23:29.971Z,69.60
2023-02-28T22:25:57.660Z,69.30
2023-02-28T22:28:25.545Z,69.30
2023-02-28T22:30:52.214Z,69.30
2023-02-28T22:33:19.165Z,69.50
2023-02-28T22:35:46.032Z,69.70
2023-02-28T22:38:12.851Z,69.90
2023-02-28T22:40:39.576Z,69.90
2023-02-28T22:43:06.548Z,70.00
2023-02-28T22:45:40.009Z,69.80
2023-02-28T22:48:07.676Z,69.90
2023-02-28T22:50:34.636Z,70.00
2023-02-28T22:53:01.626Z,70.00
2023-02-28T22:55:28.991Z,70.10
2023-02-28T22:57:56.372Z,70.30
2023-02-28T23:00:23.995Z,70.30
2023-02-28T23:02:51.012Z,70.20
2023-02-28T23:05:18.257Z,70.20
2023-02-28T23:07:45.051Z,70.30
2023-02-28T23:10:16.597Z,70.10
2023-02-28T23:12:50.283Z,70.10
2023-02-28T23:15:20.196Z,70.50
2023-02-28T23:17:47.232Z,69.70
2023-02-28T23:20:15.286Z,69.80
2023-02-28T23:22:50.430Z,70.00
2023-02-28T23:25:18.529Z,69.90
2023-02-28T23:27:45.371Z,70.10
2023-02-28T23:30:12.925Z,70.00
2023-02-28T23:32:39.803Z,69.90
2023-02-28T23:35:07.944Z,69.90
2023-02-28T23:37:35.519Z,69.80
2023-02-28T23:40:04.230Z,69.80
2023-02-28T23:42:31.041Z,69.50
2023-02-28T23:44:57.815Z,69.60
2023-02-28T23:47:24.880Z,69.50
2023-02-28T23:49:51.541Z,69.40
2023-02-28T23:52:18.199Z,69.30
2023-02-28T23:54:45.059Z,69.10
2023-02-28T23:57:11.833Z,69.00
2023-02-28T23:59:38.707Z,69.00
